Weather at Gesin Ranches Airport

Public forecast

Using degrees Fahrenheit for public forecast. Weather courtesy of forecast.io.

Closest aviation weather report (METAR) to Gesin Ranches Airport

Closest report is Avenger Field, 6.5 nm (12.0 km) NW. Retrieved 2021/07/25 00:15 UTC (16 minutes ago):

KSWW 250015Z AUTO 12007KT 10SM CLR 36/16 A3001 RMK AO2 T03620161

Closest aviation forecast (TAF) to Gesin Ranches Airport

Closest forecast is Dyess Air Force Base, 26.0 nm (48.2 km) E. Retrieved 2021/07/24 22:34 UTC (2 hours ago):

TAF KDYS 242219Z 2422/2602 17012KT 9999 SCT120 QNH2993INS BECMG 2423/2500 18012KT 9999 SKC QNH2989INS TEMPO 2510/2518 20012KT TX37/2520Z TN23/2512Z LAST NO AMDS AFT 2422 NEXT 2515